Last 30 Days

Squaw-Siberia 8700'

Daily Data | America/Los_Angeles
as of 12/15/19 10:00 AM PST
Date Daily Max Temp (°F) Max Temp Time Daily Min Temp (°F) Min Temp Time Wind Spd (mph) Daily Max Wind (mph) Max Wind Time Max Wind Dir (°) Wet Bulb (°F) WetB Hrs <28F (hrs)
12/14/19 25.2 0001 16.1 2356 31.1 79.5 0009 WNW | 283 19.7 24.0
12/13/19 31.5 1128 25.2 2359 39.9 88.7 2224 WNW | 283 27.7 15.0
12/12/19 32.0 0730 26.6 1749 42.4 81.6 0723 WNW | 283 30.3 2.1
12/11/19 31.0 2356 23.1 0052 38.1 68.0 1922 SSW | 198 27.7 13.5
12/10/19 39.2 0632 23.5 2359 19.7 64.1 2305 WSW | 239 25.8 22.1
12/9/19 36.0 2330 20.0 0444 13.1 35.1 0156 NNE | 31 23.6 23.8
12/8/19 32.1 1309 23.4 2308 21.8 77.3 0112 NW | 310 26.1 19.3
12/7/19 31.0 0411 24.7 1834 50.5 108.5 0235 SW | 224 28.0 12.0
12/6/19 30.7 1250 24.9 0548 37.5 89.3 1859 SW | 234 27.1 17.8
12/5/19 31.8 1303 24.7 0636 20.9 45.4 0048 SW | 236 27.7 16.4
12/4/19 30.6 0001 26.6 2124 21.5 50.3 2012 SW | 236 28.2 11.2
12/3/19 32.3 1209 27.9 0755 7.7 24.5 2345 SW | 224 30.4 0.4
12/2/19 31.2 1044 27.4 0001 21.0 49.4 0237 WSW | 250 29.1 4.4
12/1/19 29.2 1229 26.9 2259 40.6 84.1 1041 WSW | 250 28.1 9.5
11/30/19 29.0 2126 7.9 0302 24.6 57.2 2216 WSW | 250 16.7 21.6
11/29/19 13.6 1018 8.0 2157 22.7 49.4 1045 WSW | 250 11.0 24.0
11/28/19 14.7 1455 9.9 0730 17.1 40.9 0156 WSW | 250 11.8 24.0
11/27/19 14.6 0010 10.5 2030 31.0 85.8 0058 W | 271 12.3 24.0
11/26/19 19.3 1935 9.1 0331 40.9 115.6 2147 WSW | 247 12.7 24.0
11/25/19 32.8 0014 10.1 2335 22.3 66.5 0504 SW | 224 17.2 24.0
11/24/19 49.9 1330 32.6 2359 13.7 32.7 2232 WSW | 242 29.5 11.3
11/23/19 34.9 2358 23.7 0240 26.3 50.7 0301 ESE | 102 26.1 22.8
11/22/19 30.3 1424 25.0 0607 5.9 33.6 2358 NE | 55 27.3 17.9
11/21/19 31.0 1142 21.8 0522 2.8 14.2 1530 W | 265 25.9 15.6
11/20/19 25.1 0003 21.5 1959 17.2 51.7 0200 E | 96 22.4 24.0
11/19/19 40.2 0209 25.0 2335 30.2 71.5 0301 WSW | 238 30.2 7.4
11/18/19 58.3 0045 39.1 2351 21.6 50.6 2320 SW | 233 36.8 0.0
11/17/19 62.2 1201 39.0 0005 15.8 39.4 0042 NE | 45 37.3 0.0
11/16/19 46.7 1504 35.6 0001 21.2 35.6 0110 E | 86 31.5 0.0
11/15/19 46.0 1436 32.2 0422 19.5 49.0 0115 SSW | 196 30.8 2.0
Max 62.2 - 39.1 - 50.5 115.6 - - 37.3 24.0
Avg - - - - 24.6 - - - 25.3 -
Min 13.6 - 7.9 - 2.8 14.2 - - 11.0 0.0